sensor_id;sensor_type;location;lat;lon;timestamp;P1;durP1;ratioP1;P2;durP2;ratioP2
19854;SDS011;10088;47.946;2.532;2023-03-31T00:00:34;15.30;;;2.40;;
19854;SDS011;10088;47.946;2.532;2023-03-31T00:03:00;13.57;;;2.27;;
19854;SDS011;10088;47.946;2.532;2023-03-31T00:05:26;12.20;;;2.87;;
19854;SDS011;10088;47.946;2.532;2023-03-31T00:07:56;9.27;;;1.90;;
19854;SDS011;10088;47.946;2.532;2023-03-31T00:10:28;10.47;;;2.43;;
19854;SDS011;10088;47.946;2.532;2023-03-31T00:12:53;9.47;;;2.07;;
19854;SDS011;10088;47.946;2.532;2023-03-31T00:15:19;8.67;;;1.83;;
19854;SDS011;10088;47.946;2.532;2023-03-31T00:17:44;8.43;;;2.10;;
19854;SDS011;10088;47.946;2.532;2023-03-31T00:20:11;11.37;;;2.20;;
19854;SDS011;10088;47.946;2.532;2023-03-31T00:22:37;7.37;;;2.20;;
19854;SDS011;10088;47.946;2.532;2023-03-31T00:25:03;8.97;;;2.07;;
19854;SDS011;10088;47.946;2.532;2023-03-31T00:27:28;14.37;;;2.70;;
19854;SDS011;10088;47.946;2.532;2023-03-31T00:29:54;10.07;;;1.73;;
19854;SDS011;10088;47.946;2.532;2023-03-31T00:32:19;14.93;;;2.43;;
19854;SDS011;10088;47.946;2.532;2023-03-31T00:34:45;11.20;;;2.27;;
19854;SDS011;10088;47.946;2.532;2023-03-31T00:37:10;14.70;;;2.40;;
19854;SDS011;10088;47.946;2.532;2023-03-31T00:39:40;10.90;;;2.90;;
19854;SDS011;10088;47.946;2.532;2023-03-31T00:42:05;19.10;;;2.57;;
19854;SDS011;10088;47.946;2.532;2023-03-31T00:44:34;12.20;;;2.20;;
19854;SDS011;10088;47.946;2.532;2023-03-31T00:47:12;14.67;;;3.17;;
19854;SDS011;10088;47.946;2.532;2023-03-31T00:49:44;11.00;;;2.93;;
19854;SDS011;10088;47.946;2.532;2023-03-31T00:52:18;16.43;;;3.03;;
19854;SDS011;10088;47.946;2.532;2023-03-31T00:54:53;11.03;;;3.03;;
19854;SDS011;10088;47.946;2.532;2023-03-31T00:57:20;14.17;;;3.03;;
19854;SDS011;10088;47.946;2.532;2023-03-31T00:59:48;14.90;;;3.10;;
19854;SDS011;10088;47.946;2.532;2023-03-31T01:02:13;12.60;;;3.00;;
19854;SDS011;10088;47.946;2.532;2023-03-31T01:04:49;10.50;;;2.40;;
19854;SDS011;10088;47.946;2.532;2023-03-31T01:07:30;12.97;;;3.30;;
19854;SDS011;10088;47.946;2.532;2023-03-31T01:09:58;11.07;;;2.67;;
19854;SDS011;10088;47.946;2.532;2023-03-31T01:12:24;12.87;;;3.20;;
19854;SDS011;10088;47.946;2.532;2023-03-31T01:14:50;13.90;;;3.33;;
19854;SDS011;10088;47.946;2.532;2023-03-31T01:17:17;11.20;;;3.10;;
19854;SDS011;10088;47.946;2.532;2023-03-31T01:35:32;7.53;;;2.30;;
19854;SDS011;10088;47.946;2.532;2023-03-31T01:44:01;14.00;;;3.40;;
19854;SDS011;10088;47.946;2.532;2023-03-31T01:46:26;8.17;;;2.73;;
19854;SDS011;10088;47.946;2.532;2023-03-31T01:53:59;15.63;;;3.97;;
19854;SDS011;10088;47.946;2.532;2023-03-31T01:56:40;13.13;;;3.30;;
19854;SDS011;10088;47.946;2.532;2023-03-31T01:59:13;11.93;;;3.23;;
19854;SDS011;10088;47.946;2.532;2023-03-31T02:01:42;13.17;;;3.30;;
19854;SDS011;10088;47.946;2.532;2023-03-31T02:04:13;11.97;;;3.60;;
19854;SDS011;10088;47.946;2.532;2023-03-31T02:06:43;12.27;;;3.17;;
19854;SDS011;10088;47.946;2.532;2023-03-31T02:09:12;11.03;;;3.13;;
19854;SDS011;10088;47.946;2.532;2023-03-31T02:11:38;10.63;;;3.87;;
19854;SDS011;10088;47.946;2.532;2023-03-31T02:14:07;13.13;;;3.00;;
19854;SDS011;10088;47.946;2.532;2023-03-31T02:16:34;12.27;;;3.03;;
19854;SDS011;10088;47.946;2.532;2023-03-31T02:19:02;11.47;;;2.80;;
19854;SDS011;10088;47.946;2.532;2023-03-31T02:21:33;11.37;;;3.03;;
19854;SDS011;10088;47.946;2.532;2023-03-31T02:24:01;11.30;;;2.77;;
19854;SDS011;10088;47.946;2.532;2023-03-31T02:26:28;11.00;;;3.33;;
19854;SDS011;10088;47.946;2.532;2023-03-31T02:28:55;8.30;;;3.07;;
19854;SDS011;10088;47.946;2.532;2023-03-31T02:33:47;9.00;;;2.90;;
19854;SDS011;10088;47.946;2.532;2023-03-31T02:36:12;9.47;;;2.80;;
19854;SDS011;10088;47.946;2.532;2023-03-31T02:38:45;14.00;;;3.53;;
19854;SDS011;10088;47.946;2.532;2023-03-31T02:41:11;10.83;;;3.07;;
19854;SDS011;10088;47.946;2.532;2023-03-31T02:43:37;14.80;;;3.37;;
19854;SDS011;10088;47.946;2.532;2023-03-31T02:46:03;13.43;;;3.07;;
19854;SDS011;10088;47.946;2.532;2023-03-31T02:48:29;10.47;;;3.17;;
19854;SDS011;10088;47.946;2.532;2023-03-31T02:57:00;9.80;;;2.97;;
19854;SDS011;10088;47.946;2.532;2023-03-31T03:07:00;12.57;;;2.23;;
19854;SDS011;10088;47.946;2.532;2023-03-31T03:14:54;10.60;;;3.13;;
19854;SDS011;10088;47.946;2.532;2023-03-31T03:17:33;12.83;;;3.63;;
19854;SDS011;10088;47.946;2.532;2023-03-31T03:20:00;9.43;;;3.23;;
19854;SDS011;10088;47.946;2.532;2023-03-31T03:22:26;11.60;;;3.50;;
19854;SDS011;10088;47.946;2.532;2023-03-31T03:24:52;7.57;;;2.60;;
19854;SDS011;10088;47.946;2.532;2023-03-31T03:27:17;15.03;;;2.97;;
19854;SDS011;10088;47.946;2.532;2023-03-31T03:29:43;7.93;;;2.37;;
19854;SDS011;10088;47.946;2.532;2023-03-31T03:32:09;13.53;;;3.53;;
19854;SDS011;10088;47.946;2.532;2023-03-31T03:34:34;12.40;;;2.97;;
19854;SDS011;10088;47.946;2.532;2023-03-31T03:37:00;6.13;;;2.60;;
19854;SDS011;10088;47.946;2.532;2023-03-31T03:39:25;16.47;;;3.40;;
19854;SDS011;10088;47.946;2.532;2023-03-31T03:41:50;9.77;;;2.67;;
19854;SDS011;10088;47.946;2.532;2023-03-31T03:44:15;11.63;;;2.83;;
19854;SDS011;10088;47.946;2.532;2023-03-31T03:46:41;13.07;;;2.90;;
19854;SDS011;10088;47.946;2.532;2023-03-31T03:49:06;8.43;;;2.70;;
19854;SDS011;10088;47.946;2.532;2023-03-31T03:51:31;9.70;;;2.40;;
19854;SDS011;10088;47.946;2.532;2023-03-31T03:53:57;13.07;;;2.30;;
19854;SDS011;10088;47.946;2.532;2023-03-31T03:56:22;11.10;;;2.43;;
19854;SDS011;10088;47.946;2.532;2023-03-31T03:58:47;11.73;;;2.93;;
19854;SDS011;10088;47.946;2.532;2023-03-31T04:01:12;7.77;;;2.10;;
19854;SDS011;10088;47.946;2.532;2023-03-31T04:03:38;10.77;;;2.60;;
19854;SDS011;10088;47.946;2.532;2023-03-31T04:06:04;13.43;;;2.63;;
19854;SDS011;10088;47.946;2.532;2023-03-31T04:08:29;13.67;;;4.30;;
19854;SDS011;10088;47.946;2.532;2023-03-31T04:10:54;13.97;;;2.93;;
19854;SDS011;10088;47.946;2.532;2023-03-31T04:13:20;11.83;;;2.97;;
19854;SDS011;10088;47.946;2.532;2023-03-31T04:15:45;13.40;;;2.80;;
19854;SDS011;10088;47.946;2.532;2023-03-31T04:18:11;15.77;;;7.23;;
19854;SDS011;10088;47.946;2.532;2023-03-31T04:20:47;15.13;;;3.63;;
19854;SDS011;10088;47.946;2.532;2023-03-31T04:23:18;17.90;;;3.80;;
19854;SDS011;10088;47.946;2.532;2023-03-31T04:25:45;13.50;;;6.03;;
19854;SDS011;10088;47.946;2.532;2023-03-31T04:28:10;16.07;;;4.57;;
19854;SDS011;10088;47.946;2.532;2023-03-31T04:30:38;13.53;;;4.10;;
19854;SDS011;10088;47.946;2.532;2023-03-31T04:33:04;19.70;;;5.93;;
19854;SDS011;10088;47.946;2.532;2023-03-31T04:35:30;19.20;;;6.20;;
19854;SDS011;10088;47.946;2.532;2023-03-31T04:38:13;26.23;;;7.60;;
19854;SDS011;10088;47.946;2.532;2023-03-31T04:40:42;18.07;;;4.37;;
19854;SDS011;10088;47.946;2.532;2023-03-31T04:43:07;14.10;;;3.50;;
19854;SDS011;10088;47.946;2.532;2023-03-31T04:45:33;22.83;;;5.30;;
19854;SDS011;10088;47.946;2.532;2023-03-31T04:47:58;23.53;;;4.80;;
19854;SDS011;10088;47.946;2.532;2023-03-31T04:50:23;23.87;;;5.43;;
19854;SDS011;10088;47.946;2.532;2023-03-31T04:52:48;17.10;;;4.30;;
19854;SDS011;10088;47.946;2.532;2023-03-31T04:55:14;16.93;;;4.23;;
19854;SDS011;10088;47.946;2.532;2023-03-31T04:57:39;19.67;;;3.93;;
19854;SDS011;10088;47.946;2.532;2023-03-31T05:00:06;25.17;;;5.57;;
19854;SDS011;10088;47.946;2.532;2023-03-31T05:02:32;18.47;;;5.67;;
19854;SDS011;10088;47.946;2.532;2023-03-31T05:04:57;14.23;;;3.67;;
19854;SDS011;10088;47.946;2.532;2023-03-31T05:07:22;27.67;;;7.53;;
19854;SDS011;10088;47.946;2.532;2023-03-31T05:09:47;19.43;;;4.87;;
19854;SDS011;10088;47.946;2.532;2023-03-31T05:12:13;27.33;;;4.77;;
19854;SDS011;10088;47.946;2.532;2023-03-31T05:14:38;17.57;;;3.83;;
19854;SDS011;10088;47.946;2.532;2023-03-31T05:17:03;18.40;;;4.20;;
19854;SDS011;10088;47.946;2.532;2023-03-31T05:19:29;16.60;;;3.73;;
19854;SDS011;10088;47.946;2.532;2023-03-31T05:21:54;21.67;;;5.37;;
19854;SDS011;10088;47.946;2.532;2023-03-31T05:24:19;20.00;;;4.70;;
19854;SDS011;10088;47.946;2.532;2023-03-31T05:26:45;9.17;;;2.83;;
19854;SDS011;10088;47.946;2.532;2023-03-31T05:29:15;10.43;;;2.83;;
19854;SDS011;10088;47.946;2.532;2023-03-31T05:31:40;8.93;;;2.07;;
19854;SDS011;10088;47.946;2.532;2023-03-31T05:34:06;11.47;;;2.60;;
19854;SDS011;10088;47.946;2.532;2023-03-31T05:36:31;11.37;;;2.33;;
19854;SDS011;10088;47.946;2.532;2023-03-31T05:38:56;10.97;;;2.00;;
19854;SDS011;10088;47.946;2.532;2023-03-31T05:41:21;8.77;;;2.50;;
19854;SDS011;10088;47.946;2.532;2023-03-31T05:43:47;6.97;;;2.00;;
19854;SDS011;10088;47.946;2.532;2023-03-31T05:46:12;10.00;;;1.93;;
19854;SDS011;10088;47.946;2.532;2023-03-31T05:48:37;8.23;;;1.80;;
19854;SDS011;10088;47.946;2.532;2023-03-31T05:51:03;8.40;;;1.70;;
19854;SDS011;10088;47.946;2.532;2023-03-31T05:53:28;7.50;;;2.07;;
19854;SDS011;10088;47.946;2.532;2023-03-31T05:56:00;4.70;;;1.70;;
19854;SDS011;10088;47.946;2.532;2023-03-31T05:58:26;6.57;;;1.57;;
19854;SDS011;10088;47.946;2.532;2023-03-31T06:03:32;6.33;;;1.43;;
19854;SDS011;10088;47.946;2.532;2023-03-31T06:05:58;8.23;;;1.33;;
19854;SDS011;10088;47.946;2.532;2023-03-31T06:08:23;7.90;;;2.20;;
19854;SDS011;10088;47.946;2.532;2023-03-31T06:10:49;7.70;;;1.40;;
19854;SDS011;10088;47.946;2.532;2023-03-31T06:13:14;6.00;;;1.13;;
19854;SDS011;10088;47.946;2.532;2023-03-31T06:15:40;4.50;;;1.47;;
19854;SDS011;10088;47.946;2.532;2023-03-31T06:18:06;7.23;;;1.37;;
19854;SDS011;10088;47.946;2.532;2023-03-31T06:20:34;9.57;;;1.53;;
19854;SDS011;10088;47.946;2.532;2023-03-31T06:23:00;11.50;;;2.10;;
19854;SDS011;10088;47.946;2.532;2023-03-31T06:25:25;7.30;;;1.10;;
19854;SDS011;10088;47.946;2.532;2023-03-31T06:27:50;4.53;;;1.50;;
19854;SDS011;10088;47.946;2.532;2023-03-31T06:30:16;12.90;;;3.17;;
19854;SDS011;10088;47.946;2.532;2023-03-31T06:32:41;8.90;;;1.90;;
19854;SDS011;10088;47.946;2.532;2023-03-31T06:35:06;11.83;;;3.80;;
19854;SDS011;10088;47.946;2.532;2023-03-31T06:37:32;11.53;;;3.73;;
19854;SDS011;10088;47.946;2.532;2023-03-31T06:39:57;12.70;;;3.30;;
19854;SDS011;10088;47.946;2.532;2023-03-31T06:42:22;18.60;;;3.80;;
19854;SDS011;10088;47.946;2.532;2023-03-31T06:44:48;18.33;;;4.93;;
19854;SDS011;10088;47.946;2.532;2023-03-31T06:47:13;10.80;;;2.93;;
19854;SDS011;10088;47.946;2.532;2023-03-31T06:49:38;12.83;;;3.13;;
19854;SDS011;10088;47.946;2.532;2023-03-31T06:52:03;20.73;;;7.07;;
19854;SDS011;10088;47.946;2.532;2023-03-31T06:54:29;18.63;;;4.00;;
19854;SDS011;10088;47.946;2.532;2023-03-31T06:56:54;21.13;;;4.60;;
19854;SDS011;10088;47.946;2.532;2023-03-31T06:59:20;25.23;;;7.60;;
19854;SDS011;10088;47.946;2.532;2023-03-31T07:01:45;21.87;;;6.50;;
19854;SDS011;10088;47.946;2.532;2023-03-31T07:04:12;18.93;;;4.43;;
19854;SDS011;10088;47.946;2.532;2023-03-31T07:06:37;18.67;;;3.57;;
19854;SDS011;10088;47.946;2.532;2023-03-31T07:09:03;14.23;;;5.43;;
19854;SDS011;10088;47.946;2.532;2023-03-31T07:11:28;17.70;;;4.70;;
19854;SDS011;10088;47.946;2.532;2023-03-31T07:13:53;16.63;;;4.07;;
19854;SDS011;10088;47.946;2.532;2023-03-31T07:16:19;19.03;;;4.73;;
19854;SDS011;10088;47.946;2.532;2023-03-31T07:18:44;21.63;;;4.80;;
19854;SDS011;10088;47.946;2.532;2023-03-31T07:21:10;25.00;;;6.53;;
19854;SDS011;10088;47.946;2.532;2023-03-31T07:23:35;18.43;;;4.67;;
19854;SDS011;10088;47.946;2.532;2023-03-31T07:26:01;19.67;;;4.03;;
19854;SDS011;10088;47.946;2.532;2023-03-31T07:28:27;14.33;;;3.13;;
19854;SDS011;10088;47.946;2.532;2023-03-31T07:30:52;9.07;;;2.40;;
19854;SDS011;10088;47.946;2.532;2023-03-31T07:33:17;19.63;;;5.07;;
19854;SDS011;10088;47.946;2.532;2023-03-31T07:35:43;17.03;;;3.53;;
19854;SDS011;10088;47.946;2.532;2023-03-31T07:38:08;19.10;;;4.00;;
19854;SDS011;10088;47.946;2.532;2023-03-31T07:40:35;24.37;;;5.50;;
19854;SDS011;10088;47.946;2.532;2023-03-31T07:43:00;22.27;;;3.60;;
19854;SDS011;10088;47.946;2.532;2023-03-31T07:45:26;17.70;;;4.27;;
19854;SDS011;10088;47.946;2.532;2023-03-31T07:47:51;13.53;;;3.67;;
19854;SDS011;10088;47.946;2.532;2023-03-31T07:50:17;10.57;;;2.50;;
19854;SDS011;10088;47.946;2.532;2023-03-31T07:52:43;16.77;;;4.03;;
19854;SDS011;10088;47.946;2.532;2023-03-31T07:55:09;10.33;;;2.80;;
19854;SDS011;10088;47.946;2.532;2023-03-31T07:57:34;11.50;;;3.20;;
19854;SDS011;10088;47.946;2.532;2023-03-31T08:00:00;17.00;;;4.57;;
19854;SDS011;10088;47.946;2.532;2023-03-31T08:02:29;14.23;;;2.93;;
19854;SDS011;10088;47.946;2.532;2023-03-31T08:04:54;9.03;;;2.83;;
19854;SDS011;10088;47.946;2.532;2023-03-31T08:07:20;11.73;;;2.47;;
19854;SDS011;10088;47.946;2.532;2023-03-31T08:09:45;12.70;;;3.23;;
19854;SDS011;10088;47.946;2.532;2023-03-31T08:12:11;10.57;;;3.20;;
19854;SDS011;10088;47.946;2.532;2023-03-31T08:14:36;11.23;;;2.57;;
19854;SDS011;10088;47.946;2.532;2023-03-31T08:17:01;13.07;;;2.93;;
19854;SDS011;10088;47.946;2.532;2023-03-31T08:19:27;14.50;;;3.73;;
19854;SDS011;10088;47.946;2.532;2023-03-31T08:21:53;11.73;;;2.80;;
19854;SDS011;10088;47.946;2.532;2023-03-31T08:24:18;13.80;;;3.17;;
19854;SDS011;10088;47.946;2.532;2023-03-31T08:26:43;11.73;;;2.97;;
19854;SDS011;10088;47.946;2.532;2023-03-31T08:29:09;15.00;;;4.97;;
19854;SDS011;10088;47.946;2.532;2023-03-31T08:31:34;14.53;;;3.57;;
19854;SDS011;10088;47.946;2.532;2023-03-31T08:34:00;13.17;;;2.93;;
19854;SDS011;10088;47.946;2.532;2023-03-31T08:36:26;7.37;;;2.60;;
19854;SDS011;10088;47.946;2.532;2023-03-31T08:38:52;16.17;;;3.17;;
19854;SDS011;10088;47.946;2.532;2023-03-31T08:44:03;13.93;;;3.73;;
19854;SDS011;10088;47.946;2.532;2023-03-31T08:46:31;8.13;;;2.47;;
19854;SDS011;10088;47.946;2.532;2023-03-31T08:48:59;11.13;;;2.97;;
19854;SDS011;10088;47.946;2.532;2023-03-31T08:51:31;9.67;;;2.77;;
19854;SDS011;10088;47.946;2.532;2023-03-31T08:54:00;14.47;;;3.90;;
19854;SDS011;10088;47.946;2.532;2023-03-31T08:56:27;14.10;;;3.13;;
19854;SDS011;10088;47.946;2.532;2023-03-31T08:58:54;13.93;;;2.93;;
19854;SDS011;10088;47.946;2.532;2023-03-31T09:01:28;13.13;;;3.03;;
19854;SDS011;10088;47.946;2.532;2023-03-31T09:09:49;15.13;;;3.13;;
19854;SDS011;10088;47.946;2.532;2023-03-31T09:15:37;16.30;;;3.40;;
19854;SDS011;10088;47.946;2.532;2023-03-31T09:21:16;11.63;;;2.83;;
19854;SDS011;10088;47.946;2.532;2023-03-31T09:24:47;14.23;;;2.60;;
19854;SDS011;10088;47.946;2.532;2023-03-31T09:27:02;19.13;;;3.90;;
19854;SDS011;10088;47.946;2.532;2023-03-31T09:31:07;15.70;;;3.27;;
19854;SDS011;10088;47.946;2.532;2023-03-31T09:36:24;10.37;;;2.50;;
19854;SDS011;10088;47.946;2.532;2023-03-31T09:39:09;11.40;;;2.37;;
19854;SDS011;10088;47.946;2.532;2023-03-31T09:41:47;13.23;;;2.77;;
19854;SDS011;10088;47.946;2.532;2023-03-31T09:44:43;14.37;;;3.27;;
19854;SDS011;10088;47.946;2.532;2023-03-31T09:47:41;12.77;;;3.27;;
19854;SDS011;10088;47.946;2.532;2023-03-31T09:50:08;14.00;;;2.83;;
19854;SDS011;10088;47.946;2.532;2023-03-31T09:52:59;12.43;;;2.67;;
19854;SDS011;10088;47.946;2.532;2023-03-31T09:58:12;17.67;;;3.93;;
19854;SDS011;10088;47.946;2.532;2023-03-31T10:01:02;18.37;;;3.80;;
19854;SDS011;10088;47.946;2.532;2023-03-31T10:03:56;19.90;;;4.60;;
19854;SDS011;10088;47.946;2.532;2023-03-31T10:07:24;13.53;;;3.40;;
19854;SDS011;10088;47.946;2.532;2023-03-31T10:10:36;16.83;;;3.57;;
19854;SDS011;10088;47.946;2.532;2023-03-31T10:13:34;9.57;;;2.63;;
19854;SDS011;10088;47.946;2.532;2023-03-31T10:16:11;10.70;;;2.50;;
19854;SDS011;10088;47.946;2.532;2023-03-31T10:18:52;19.40;;;3.93;;
19854;SDS011;10088;47.946;2.532;2023-03-31T10:21:31;11.53;;;3.07;;
19854;SDS011;10088;47.946;2.532;2023-03-31T10:24:17;11.00;;;2.47;;
19854;SDS011;10088;47.946;2.532;2023-03-31T10:26:56;16.10;;;4.17;;
19854;SDS011;10088;47.946;2.532;2023-03-31T10:29:43;12.00;;;1.90;;
19854;SDS011;10088;47.946;2.532;2023-03-31T10:32:31;8.93;;;2.77;;
19854;SDS011;10088;47.946;2.532;2023-03-31T10:41:39;7.30;;;2.80;;
19854;SDS011;10088;47.946;2.532;2023-03-31T10:44:28;16.83;;;3.50;;
19854;SDS011;10088;47.946;2.532;2023-03-31T10:47:21;11.87;;;2.50;;
19854;SDS011;10088;47.946;2.532;2023-03-31T10:53:11;12.93;;;3.27;;
19854;SDS011;10088;47.946;2.532;2023-03-31T11:15:23;15.03;;;2.57;;
19854;SDS011;10088;47.946;2.532;2023-03-31T11:21:00;7.80;;;1.97;;
19854;SDS011;10088;47.946;2.532;2023-03-31T11:27:05;11.57;;;3.20;;
19854;SDS011;10088;47.946;2.532;2023-03-31T11:34:15;9.70;;;2.70;;
19854;SDS011;10088;47.946;2.532;2023-03-31T11:41:57;8.87;;;2.10;;
19854;SDS011;10088;47.946;2.532;2023-03-31T11:44:23;7.57;;;2.23;;
19854;SDS011;10088;47.946;2.532;2023-03-31T11:46:53;10.77;;;2.77;;
19854;SDS011;10088;47.946;2.532;2023-03-31T11:51:47;8.93;;;3.10;;
19854;SDS011;10088;47.946;2.532;2023-03-31T11:56:56;5.17;;;1.73;;
19854;SDS011;10088;47.946;2.532;2023-03-31T11:59:23;8.13;;;2.00;;
19854;SDS011;10088;47.946;2.532;2023-03-31T12:04:33;6.23;;;1.97;;
19854;SDS011;10088;47.946;2.532;2023-03-31T12:07:02;9.73;;;2.20;;
19854;SDS011;10088;47.946;2.532;2023-03-31T12:12:21;9.27;;;2.00;;
19854;SDS011;10088;47.946;2.532;2023-03-31T12:14:57;9.97;;;2.50;;
19854;SDS011;10088;47.946;2.532;2023-03-31T12:17:25;15.70;;;2.33;;
19854;SDS011;10088;47.946;2.532;2023-03-31T12:19:55;8.53;;;2.17;;
19854;SDS011;10088;47.946;2.532;2023-03-31T12:22:25;6.80;;;2.13;;
19854;SDS011;10088;47.946;2.532;2023-03-31T12:24:51;9.53;;;2.20;;
19854;SDS011;10088;47.946;2.532;2023-03-31T12:29:58;7.27;;;2.20;;
19854;SDS011;10088;47.946;2.532;2023-03-31T12:32:29;12.20;;;3.03;;
19854;SDS011;10088;47.946;2.532;2023-03-31T12:34:56;11.93;;;2.90;;
19854;SDS011;10088;47.946;2.532;2023-03-31T12:40:14;6.80;;;2.37;;
19854;SDS011;10088;47.946;2.532;2023-03-31T12:42:50;9.20;;;2.53;;
19854;SDS011;10088;47.946;2.532;2023-03-31T12:45:26;7.20;;;2.13;;
19854;SDS011;10088;47.946;2.532;2023-03-31T12:47:58;10.43;;;2.57;;
19854;SDS011;10088;47.946;2.532;2023-03-31T12:50:30;9.67;;;1.80;;
19854;SDS011;10088;47.946;2.532;2023-03-31T12:55:47;7.13;;;2.03;;
19854;SDS011;10088;47.946;2.532;2023-03-31T13:06:00;7.67;;;2.00;;
19854;SDS011;10088;47.946;2.532;2023-03-31T13:11:10;7.67;;;2.60;;
19854;SDS011;10088;47.946;2.532;2023-03-31T13:13:35;10.87;;;2.20;;
19854;SDS011;10088;47.946;2.532;2023-03-31T13:16:04;8.60;;;2.83;;
19854;SDS011;10088;47.946;2.532;2023-03-31T13:18:30;7.40;;;2.20;;
19854;SDS011;10088;47.946;2.532;2023-03-31T13:20:58;7.57;;;2.10;;
19854;SDS011;10088;47.946;2.532;2023-03-31T13:23:24;4.07;;;1.47;;
19854;SDS011;10088;47.946;2.532;2023-03-31T13:25:53;10.03;;;1.90;;
19854;SDS011;10088;47.946;2.532;2023-03-31T13:33:23;10.23;;;2.77;;
19854;SDS011;10088;47.946;2.532;2023-03-31T13:36:37;5.97;;;1.80;;
19854;SDS011;10088;47.946;2.532;2023-03-31T13:46:20;7.53;;;1.90;;
19854;SDS011;10088;47.946;2.532;2023-03-31T13:56:45;4.87;;;1.40;;
19854;SDS011;10088;47.946;2.532;2023-03-31T13:59:59;3.80;;;1.40;;
19854;SDS011;10088;47.946;2.532;2023-03-31T14:07:08;6.27;;;1.80;;
19854;SDS011;10088;47.946;2.532;2023-03-31T14:09:39;5.40;;;1.60;;
19854;SDS011;10088;47.946;2.532;2023-03-31T14:15:06;7.73;;;1.97;;
19854;SDS011;10088;47.946;2.532;2023-03-31T14:17:41;8.07;;;2.13;;
19854;SDS011;10088;47.946;2.532;2023-03-31T14:26:01;10.03;;;1.83;;
19854;SDS011;10088;47.946;2.532;2023-03-31T14:36:15;6.23;;;1.53;;
19854;SDS011;10088;47.946;2.532;2023-03-31T14:38:45;4.13;;;1.57;;
19854;SDS011;10088;47.946;2.532;2023-03-31T14:41:20;6.67;;;1.90;;
19854;SDS011;10088;47.946;2.532;2023-03-31T14:43:53;9.13;;;2.40;;
19854;SDS011;10088;47.946;2.532;2023-03-31T14:46:20;7.37;;;2.37;;
19854;SDS011;10088;47.946;2.532;2023-03-31T14:48:46;5.70;;;2.00;;
19854;SDS011;10088;47.946;2.532;2023-03-31T14:51:16;8.03;;;2.33;;
19854;SDS011;10088;47.946;2.532;2023-03-31T14:53:41;6.27;;;1.50;;
19854;SDS011;10088;47.946;2.532;2023-03-31T14:56:13;6.60;;;2.20;;
19854;SDS011;10088;47.946;2.532;2023-03-31T14:58:45;2.90;;;1.20;;
19854;SDS011;10088;47.946;2.532;2023-03-31T15:01:13;5.80;;;1.43;;
19854;SDS011;10088;47.946;2.532;2023-03-31T15:03:41;4.67;;;1.70;;
19854;SDS011;10088;47.946;2.532;2023-03-31T15:06:07;7.57;;;2.00;;
19854;SDS011;10088;47.946;2.532;2023-03-31T15:08:33;3.93;;;1.20;;
19854;SDS011;10088;47.946;2.532;2023-03-31T15:10:59;8.33;;;2.07;;
19854;SDS011;10088;47.946;2.532;2023-03-31T15:15:57;8.97;;;2.03;;
19854;SDS011;10088;47.946;2.532;2023-03-31T15:18:24;8.43;;;2.00;;
19854;SDS011;10088;47.946;2.532;2023-03-31T15:20:49;8.10;;;1.90;;
19854;SDS011;10088;47.946;2.532;2023-03-31T15:23:19;6.20;;;1.40;;
19854;SDS011;10088;47.946;2.532;2023-03-31T15:25:49;8.17;;;2.00;;
19854;SDS011;10088;47.946;2.532;2023-03-31T15:28:17;7.00;;;1.97;;
19854;SDS011;10088;47.946;2.532;2023-03-31T15:30:43;6.23;;;2.10;;
19854;SDS011;10088;47.946;2.532;2023-03-31T15:33:18;8.37;;;1.83;;
19854;SDS011;10088;47.946;2.532;2023-03-31T15:35:45;7.53;;;1.87;;
19854;SDS011;10088;47.946;2.532;2023-03-31T15:38:11;8.27;;;1.93;;
19854;SDS011;10088;47.946;2.532;2023-03-31T15:40:40;13.30;;;3.00;;
19854;SDS011;10088;47.946;2.532;2023-03-31T15:48:54;8.53;;;2.20;;
19854;SDS011;10088;47.946;2.532;2023-03-31T15:53:42;9.53;;;1.60;;
19854;SDS011;10088;47.946;2.532;2023-03-31T15:56:08;8.07;;;2.20;;
19854;SDS011;10088;47.946;2.532;2023-03-31T15:58:58;8.47;;;2.07;;
19854;SDS011;10088;47.946;2.532;2023-03-31T16:01:45;8.80;;;1.90;;
19854;SDS011;10088;47.946;2.532;2023-03-31T16:04:10;8.50;;;2.23;;
19854;SDS011;10088;47.946;2.532;2023-03-31T16:09:09;7.23;;;1.70;;
19854;SDS011;10088;47.946;2.532;2023-03-31T16:14:01;5.10;;;1.47;;
19854;SDS011;10088;47.946;2.532;2023-03-31T16:16:31;4.27;;;1.63;;
19854;SDS011;10088;47.946;2.532;2023-03-31T16:19:04;5.33;;;1.63;;
19854;SDS011;10088;47.946;2.532;2023-03-31T16:21:38;8.03;;;1.93;;
19854;SDS011;10088;47.946;2.532;2023-03-31T16:24:04;9.33;;;1.80;;
19854;SDS011;10088;47.946;2.532;2023-03-31T16:26:30;7.47;;;2.83;;
19854;SDS011;10088;47.946;2.532;2023-03-31T16:28:56;8.23;;;1.93;;
19854;SDS011;10088;47.946;2.532;2023-03-31T16:31:38;7.70;;;2.43;;
19854;SDS011;10088;47.946;2.532;2023-03-31T16:34:08;11.77;;;1.80;;
19854;SDS011;10088;47.946;2.532;2023-03-31T16:36:34;8.83;;;2.23;;
19854;SDS011;10088;47.946;2.532;2023-03-31T16:38:59;5.90;;;1.57;;
19854;SDS011;10088;47.946;2.532;2023-03-31T16:41:30;7.07;;;2.50;;
19854;SDS011;10088;47.946;2.532;2023-03-31T16:44:00;6.90;;;1.80;;
19854;SDS011;10088;47.946;2.532;2023-03-31T16:47:16;7.40;;;2.00;;
19854;SDS011;10088;47.946;2.532;2023-03-31T16:49:49;9.73;;;1.93;;
19854;SDS011;10088;47.946;2.532;2023-03-31T16:52:15;9.00;;;2.03;;
19854;SDS011;10088;47.946;2.532;2023-03-31T16:54:41;7.37;;;1.57;;
19854;SDS011;10088;47.946;2.532;2023-03-31T16:57:06;8.47;;;2.03;;
19854;SDS011;10088;47.946;2.532;2023-03-31T16:59:31;7.97;;;2.10;;
19854;SDS011;10088;47.946;2.532;2023-03-31T17:01:56;12.60;;;2.37;;
19854;SDS011;10088;47.946;2.532;2023-03-31T17:04:22;16.00;;;2.60;;
19854;SDS011;10088;47.946;2.532;2023-03-31T17:06:48;6.73;;;1.30;;
19854;SDS011;10088;47.946;2.532;2023-03-31T17:09:13;7.77;;;1.60;;
19854;SDS011;10088;47.946;2.532;2023-03-31T17:11:38;6.53;;;1.60;;
19854;SDS011;10088;47.946;2.532;2023-03-31T17:14:03;8.83;;;1.60;;
19854;SDS011;10088;47.946;2.532;2023-03-31T17:16:29;9.83;;;2.03;;
19854;SDS011;10088;47.946;2.532;2023-03-31T17:18:55;10.40;;;2.20;;
19854;SDS011;10088;47.946;2.532;2023-03-31T17:21:20;8.47;;;1.90;;
19854;SDS011;10088;47.946;2.532;2023-03-31T17:23:46;9.33;;;1.63;;
19854;SDS011;10088;47.946;2.532;2023-03-31T17:26:11;9.47;;;1.73;;
19854;SDS011;10088;47.946;2.532;2023-03-31T17:28:37;5.80;;;1.50;;
19854;SDS011;10088;47.946;2.532;2023-03-31T17:31:09;5.67;;;1.00;;
19854;SDS011;10088;47.946;2.532;2023-03-31T17:33:35;4.73;;;1.13;;
19854;SDS011;10088;47.946;2.532;2023-03-31T17:36:00;4.00;;;1.13;;
19854;SDS011;10088;47.946;2.532;2023-03-31T17:41:21;3.40;;;0.93;;
19854;SDS011;10088;47.946;2.532;2023-03-31T17:43:46;8.53;;;1.60;;
19854;SDS011;10088;47.946;2.532;2023-03-31T17:46:13;4.03;;;1.20;;
19854;SDS011;10088;47.946;2.532;2023-03-31T17:48:39;4.80;;;1.10;;
19854;SDS011;10088;47.946;2.532;2023-03-31T17:51:19;7.27;;;1.63;;
19854;SDS011;10088;47.946;2.532;2023-03-31T17:54:02;7.07;;;1.70;;
19854;SDS011;10088;47.946;2.532;2023-03-31T17:56:54;6.47;;;1.40;;
19854;SDS011;10088;47.946;2.532;2023-03-31T17:59:27;7.57;;;1.70;;
19854;SDS011;10088;47.946;2.532;2023-03-31T18:02:08;8.40;;;1.50;;
19854;SDS011;10088;47.946;2.532;2023-03-31T18:04:47;8.60;;;2.10;;
19854;SDS011;10088;47.946;2.532;2023-03-31T18:07:35;9.90;;;2.20;;
19854;SDS011;10088;47.946;2.532;2023-03-31T18:10:17;7.87;;;1.70;;
19854;SDS011;10088;47.946;2.532;2023-03-31T18:13:12;7.97;;;2.33;;
19854;SDS011;10088;47.946;2.532;2023-03-31T18:15:37;12.30;;;2.03;;
19854;SDS011;10088;47.946;2.532;2023-03-31T18:18:13;14.47;;;3.00;;
19854;SDS011;10088;47.946;2.532;2023-03-31T18:21:09;9.53;;;2.10;;
19854;SDS011;10088;47.946;2.532;2023-03-31T18:24:08;13.57;;;3.10;;